createdAt,value
2019-05-10T00:03:08.837Z,5.83
2019-05-10T00:08:32.782Z,9.67
2019-05-10T00:13:42.127Z,7.33
2019-05-10T00:18:47.923Z,9.77
2019-05-10T00:23:53.811Z,9.00
2019-05-10T00:28:59.793Z,7.53
2019-05-10T00:34:05.617Z,6.47
2019-05-10T00:39:11.521Z,9.60
2019-05-10T00:44:17.468Z,9.23
2019-05-10T00:49:23.438Z,11.30
2019-05-10T00:54:29.413Z,9.85
2019-05-10T00:59:35.434Z,9.95
2019-05-10T01:04:41.271Z,8.00
2019-05-10T01:09:47.182Z,8.53
2019-05-10T01:14:53.209Z,8.77
2019-05-10T01:19:59.020Z,8.00
2019-05-10T01:25:05.203Z,8.87
2019-05-10T01:30:12.054Z,10.37
2019-05-10T01:35:17.971Z,9.07
2019-05-10T01:40:23.911Z,12.37
2019-05-10T01:45:30.689Z,11.63
2019-05-10T01:50:36.671Z,11.83
2019-05-10T01:55:51.547Z,14.43
2019-05-10T02:00:50.079Z,17.47
2019-05-10T02:05:56.021Z,20.30
2019-05-10T02:11:02.116Z,23.20
2019-05-10T02:16:09.374Z,22.20
2019-05-10T02:21:15.330Z,24.67
2019-05-10T02:26:21.507Z,21.40
2019-05-10T02:31:27.532Z,18.70
2019-05-10T02:36:33.510Z,18.27
2019-05-10T02:41:39.584Z,21.17
2019-05-10T02:46:45.490Z,25.23
2019-05-10T02:51:51.454Z,29.02
2019-05-10T02:56:58.358Z,25.10
2019-05-10T03:02:06.316Z,25.40
2019-05-10T03:07:12.239Z,25.33
2019-05-10T03:12:24.637Z,28.27
2019-05-10T03:17:30.726Z,26.40
2019-05-10T03:22:43.156Z,25.57
2019-05-10T03:27:49.660Z,25.60
2019-05-10T03:32:55.756Z,26.43
2019-05-10T03:38:01.840Z,28.40
2019-05-10T03:43:08.099Z,25.97
2019-05-10T03:48:13.968Z,28.27
2019-05-10T03:53:20.018Z,28.03
2019-05-10T03:58:26.142Z,28.20
2019-05-10T04:03:32.301Z,28.67
2019-05-10T04:08:38.267Z,31.77
2019-05-10T04:13:44.324Z,30.27
2019-05-10T04:18:50.363Z,29.07
2019-05-10T04:23:56.377Z,28.93
2019-05-10T04:29:02.495Z,28.10
2019-05-10T04:34:10.782Z,29.17
2019-05-10T04:39:16.871Z,31.40
2019-05-10T04:44:22.764Z,31.90
2019-05-10T04:49:28.626Z,28.50
2019-05-10T04:54:34.618Z,29.03
2019-05-10T04:59:40.565Z,37.23
2019-05-10T05:04:47.483Z,26.40
2019-05-10T05:09:53.769Z,29.97
2019-05-10T05:14:59.920Z,27.83
2019-05-10T05:20:06.576Z,30.13
2019-05-10T05:25:12.952Z,33.97
2019-05-10T05:30:19.288Z,26.73
2019-05-10T05:35:25.163Z,30.43
2019-05-10T05:40:31.167Z,27.60
2019-05-10T05:45:37.260Z,28.80
2019-05-10T05:50:43.062Z,26.67
2019-05-10T05:55:49.133Z,26.73
2019-05-10T06:00:55.329Z,25.50
2019-05-10T06:06:01.447Z,26.83
2019-05-10T06:11:09.220Z,25.60
2019-05-10T06:16:15.017Z,25.93
2019-05-10T06:21:25.140Z,34.20
2019-05-10T06:26:29.739Z,25.77
2019-05-10T06:31:37.134Z,26.93
2019-05-10T06:36:43.087Z,26.67
2019-05-10T06:41:49.963Z,26.33
2019-05-10T06:47:02.019Z,22.27
2019-05-10T06:52:05.397Z,23.17
2019-05-10T06:57:17.310Z,24.03
2019-05-10T07:02:19.963Z,24.20
2019-05-10T07:07:43.258Z,25.87
2019-05-10T07:12:34.791Z,24.10
2019-05-10T07:17:45.168Z,27.03
2019-05-10T07:22:49.192Z,26.13
2019-05-10T07:27:55.213Z,25.50
2019-05-10T07:33:02.329Z,22.87
2019-05-10T07:38:10.024Z,25.50
2019-05-10T07:43:24.811Z,27.27
2019-05-10T07:48:25.753Z,22.47
2019-05-10T07:53:32.190Z,19.77
2019-05-10T07:58:43.429Z,27.37
2019-05-10T08:03:52.179Z,24.60
2019-05-10T08:08:55.484Z,27.47
2019-05-10T08:14:06.012Z,25.60
2019-05-10T08:19:10.214Z,24.80
2019-05-10T08:24:16.806Z,28.57
2019-05-10T08:29:22.793Z,25.93
2019-05-10T08:34:34.210Z,25.57
2019-05-10T08:39:45.111Z,33.03
2019-05-10T08:44:44.389Z,28.97
2019-05-10T08:50:00.173Z,29.33
2019-05-10T08:54:58.120Z,30.23
2019-05-10T09:00:08.897Z,25.60
2019-05-10T09:05:12.623Z,28.00
2019-05-10T09:10:19.166Z,23.70
2019-05-10T09:15:25.599Z,29.47
2019-05-10T09:20:32.010Z,21.67
2019-05-10T09:25:38.011Z,20.77
2019-05-10T09:30:56.506Z,19.87
2019-05-10T09:35:54.798Z,17.87
2019-05-10T09:40:59.208Z,16.97
2019-05-10T09:46:05.134Z,19.47
2019-05-10T09:51:13.423Z,17.13
2019-05-10T09:56:18.777Z,17.03
2019-05-10T10:01:24.806Z,12.43
2019-05-10T10:06:30.851Z,9.20
2019-05-10T10:11:37.003Z,9.23
2019-05-10T10:16:48.875Z,9.43
2019-05-10T10:21:51.747Z,10.00
2019-05-10T10:26:58.151Z,13.27
2019-05-10T10:32:04.115Z,10.93
2019-05-10T10:37:14.753Z,7.37
2019-05-10T10:42:18.811Z,7.67
2019-05-10T10:47:28.319Z,7.63
2019-05-10T10:52:33.527Z,5.72
2019-05-10T10:57:41.006Z,9.45
2019-05-10T11:02:51.760Z,5.95
2019-05-10T11:07:55.068Z,4.78
2019-05-10T11:13:10.670Z,5.62
2019-05-10T11:18:09.658Z,3.90
2019-05-10T11:23:16.286Z,6.17
2019-05-10T11:28:23.210Z,3.17
2019-05-10T11:33:32.830Z,5.17
2019-05-10T11:38:36.722Z,4.72
2019-05-10T11:43:42.587Z,5.42
2019-05-10T11:48:50.362Z,4.75
2019-05-10T11:53:59.609Z,2.72
2019-05-10T11:59:05.821Z,7.40
2019-05-10T12:04:28.734Z,5.83
2019-05-10T12:09:21.303Z,3.47
2019-05-10T12:14:27.531Z,7.58
2019-05-10T12:19:44.512Z,6.90
2019-05-10T12:24:53.803Z,3.20
2019-05-10T12:29:55.527Z,5.28
2019-05-10T12:34:57.726Z,10.68
2019-05-10T12:40:09.883Z,4.37
2019-05-10T12:45:11.483Z,2.92
2019-05-10T12:50:17.794Z,13.60
2019-05-10T12:55:23.804Z,3.85
2019-05-10T13:00:29.819Z,4.62
2019-05-10T13:05:50.239Z,3.92
2019-05-10T13:10:47.383Z,3.37
2019-05-10T13:15:51.302Z,3.47
2019-05-10T13:20:57.382Z,3.25
2019-05-10T13:26:03.470Z,2.67
2019-05-10T13:31:09.413Z,3.42
2019-05-10T13:36:15.425Z,5.30
2019-05-10T13:41:24.092Z,3.75
2019-05-10T13:46:29.132Z,3.00
2019-05-10T13:51:35.062Z,6.62
2019-05-10T13:56:45.313Z,2.30
2019-05-10T14:01:49.795Z,8.75
2019-05-10T14:06:56.384Z,4.17
2019-05-10T14:12:02.389Z,3.22
2019-05-10T14:17:08.426Z,7.05
2019-05-10T14:22:14.515Z,5.17
2019-05-10T14:27:20.487Z,4.53
2019-05-10T14:32:27.686Z,3.45
2019-05-10T14:37:33.646Z,6.20
2019-05-10T14:42:39.803Z,9.03
2019-05-10T14:47:50.125Z,8.83
2019-05-10T14:52:53.234Z,4.62
2019-05-10T14:57:59.113Z,9.10
2019-05-10T15:03:05.185Z,7.03
2019-05-10T15:08:11.144Z,6.53
2019-05-10T15:13:19.670Z,4.67
2019-05-10T15:18:25.165Z,5.17
2019-05-10T15:23:31.812Z,5.47
2019-05-10T15:28:40.197Z,4.90
2019-05-10T15:33:45.289Z,4.50
2019-05-10T15:38:52.290Z,7.95
2019-05-10T15:43:58.274Z,3.05
2019-05-10T15:49:04.237Z,10.93
2019-05-10T15:54:10.518Z,6.95
2019-05-10T15:59:19.289Z,5.30
2019-05-10T16:04:24.219Z,9.05
2019-05-10T16:09:30.245Z,9.10
2019-05-10T16:14:39.353Z,8.08
2019-05-10T16:19:43.773Z,5.92
2019-05-10T16:24:49.965Z,6.08
2019-05-10T16:29:56.060Z,5.53
2019-05-10T16:35:05.770Z,6.37
2019-05-10T16:40:10.532Z,4.22
2019-05-10T16:45:16.753Z,7.05
2019-05-10T16:50:26.090Z,6.70
2019-05-10T16:55:30.506Z,8.65
2019-05-10T17:00:40.795Z,5.40
2019-05-10T17:05:53.126Z,7.83
2019-05-10T17:10:53.149Z,3.45
2019-05-10T17:15:59.311Z,6.92
2019-05-10T17:21:05.687Z,5.65
2019-05-10T17:26:12.088Z,6.15
2019-05-10T17:31:18.142Z,8.18
2019-05-10T17:36:24.659Z,5.75
2019-05-10T17:41:30.731Z,5.30
2019-05-10T17:46:37.016Z,6.58
2019-05-10T17:51:43.061Z,8.18
2019-05-10T17:56:49.110Z,5.53
2019-05-10T18:01:55.190Z,6.37
2019-05-10T18:07:01.428Z,5.15
2019-05-10T18:12:07.388Z,4.85
2019-05-10T18:17:13.394Z,4.08
2019-05-10T18:22:19.327Z,4.75
2019-05-10T18:27:25.509Z,5.83
2019-05-10T18:32:35.477Z,3.65
2019-05-10T18:37:40.083Z,6.50
2019-05-10T18:42:46.432Z,7.17
2019-05-10T18:47:52.536Z,8.90
2019-05-10T18:52:58.730Z,4.85
2019-05-10T18:58:04.744Z,8.70
2019-05-10T19:03:10.852Z,6.45
2019-05-10T19:08:16.898Z,6.47
2019-05-10T19:13:23.124Z,5.12
2019-05-10T19:18:29.913Z,4.70
2019-05-10T19:23:36.339Z,7.77
2019-05-10T19:28:42.556Z,4.55
2019-05-10T19:33:48.717Z,9.28
2019-05-10T19:38:54.942Z,10.00
2019-05-10T19:44:02.616Z,9.35
2019-05-10T19:49:13.204Z,7.45
2019-05-10T19:54:19.352Z,16.25
2019-05-10T19:59:26.393Z,18.65
2019-05-10T20:04:32.353Z,11.83
2019-05-10T20:09:38.502Z,11.57
2019-05-10T20:14:44.327Z,4.00
2019-05-10T20:19:51.972Z,7.53
2019-05-10T20:24:57.820Z,9.83
2019-05-10T20:30:03.987Z,12.68
2019-05-10T20:35:11.612Z,20.20
2019-05-10T20:40:17.919Z,20.57
2019-05-10T20:45:23.734Z,17.55
2019-05-10T20:50:29.858Z,10.32
2019-05-10T20:55:35.898Z,11.63
2019-05-10T21:00:41.861Z,13.05
2019-05-10T21:05:48.396Z,48.87
2019-05-10T21:10:54.544Z,40.52
2019-05-10T21:16:01.026Z,20.23
2019-05-10T21:21:07.121Z,13.00
2019-05-10T21:26:13.104Z,11.93
2019-05-10T21:31:23.239Z,13.45
2019-05-10T21:36:29.397Z,16.27
2019-05-10T21:41:35.535Z,20.25
2019-05-10T21:46:43.391Z,16.23
2019-05-10T21:51:49.681Z,22.75
2019-05-10T21:56:55.844Z,11.55
2019-05-10T22:02:02.179Z,12.23
2019-05-10T22:07:08.561Z,15.13
2019-05-10T22:12:14.459Z,15.03
2019-05-10T22:17:20.516Z,13.00
2019-05-10T22:22:26.672Z,18.62
2019-05-10T22:27:32.795Z,19.57
2019-05-10T22:32:38.839Z,14.80
2019-05-10T22:37:44.866Z,14.90
2019-05-10T22:42:50.881Z,13.45
2019-05-10T22:47:57.149Z,13.45
2019-05-10T22:53:02.921Z,15.43
2019-05-10T22:58:09.188Z,13.03
2019-05-10T23:03:15.162Z,11.95
2019-05-10T23:08:21.061Z,15.30
2019-05-10T23:13:27.028Z,14.18
2019-05-10T23:18:33.229Z,20.32
2019-05-10T23:23:39.282Z,14.73
2019-05-10T23:28:45.253Z,11.22
2019-05-10T23:33:51.227Z,14.03
2019-05-10T23:38:57.204Z,14.93
2019-05-10T23:44:03.401Z,20.52
2019-05-10T23:49:09.355Z,11.03
2019-05-10T23:54:15.455Z,13.45
2019-05-10T23:59:21.389Z,9.50
